createdAt,value
2018-06-27T00:01:39.297Z,102476.58
2018-06-27T00:04:08.137Z,102476.31
2018-06-27T00:06:37.250Z,102481.77
2018-06-27T00:09:08.124Z,102479.86
2018-06-27T00:11:36.947Z,102481.80
2018-06-27T00:14:06.340Z,102477.71
2018-06-27T00:16:35.166Z,102473.92
2018-06-27T00:19:04.038Z,102474.76
2018-06-27T00:21:33.223Z,102476.41
2018-06-27T00:24:02.056Z,102480.23
2018-06-27T00:26:31.459Z,102477.30
2018-06-27T00:29:00.915Z,102471.03
2018-06-27T00:31:29.963Z,102477.08
2018-06-27T00:33:59.248Z,102467.58
2018-06-27T00:36:28.794Z,102469.78
2018-06-27T00:38:57.569Z,102473.38
2018-06-27T00:41:27.044Z,102467.72
2018-06-27T00:43:56.038Z,102472.31
2018-06-27T00:46:25.359Z,102471.81
2018-06-27T00:48:54.235Z,102479.44
2018-06-27T00:51:23.354Z,102477.02
2018-06-27T00:53:57.421Z,102481.66
2018-06-27T00:56:26.594Z,102487.64
2018-06-27T00:58:55.420Z,102485.77
2018-06-27T01:01:24.531Z,102488.23
2018-06-27T01:03:54.166Z,102479.28
2018-06-27T01:06:23.214Z,102477.94
2018-06-27T01:08:52.274Z,102485.52
2018-06-27T01:11:21.162Z,102480.38
2018-06-27T01:13:49.954Z,102483.17
2018-06-27T01:16:19.016Z,102480.73
2018-06-27T01:18:48.052Z,102482.12
2018-06-27T01:21:17.140Z,102487.80
2018-06-27T01:23:46.014Z,102484.56
2018-06-27T01:26:15.662Z,102487.28
2018-06-27T01:28:45.366Z,102483.23
2018-06-27T01:31:14.814Z,102479.99
2018-06-27T01:33:43.995Z,102487.03
2018-06-27T01:36:13.065Z,102486.52
2018-06-27T01:38:42.107Z,102481.08
2018-06-27T01:41:11.463Z,102477.52
2018-06-27T01:43:40.271Z,102481.35
2018-06-27T01:46:09.386Z,102472.91
2018-06-27T01:48:38.588Z,102476.98
2018-06-27T01:51:07.735Z,102479.70
2018-06-27T01:53:38.139Z,102481.59
2018-06-27T01:56:08.906Z,102484.33
2018-06-27T01:58:38.111Z,102483.25
2018-06-27T02:01:07.040Z,102490.05
2018-06-27T02:03:35.814Z,102493.05
2018-06-27T02:06:04.631Z,102492.77
2018-06-27T02:08:33.406Z,102489.80
2018-06-27T02:11:02.185Z,102491.97
2018-06-27T02:13:31.233Z,102495.25
2018-06-27T02:16:00.118Z,102488.47
2018-06-27T02:18:29.175Z,102489.83
2018-06-27T02:20:57.982Z,102488.20
2018-06-27T02:23:26.824Z,102489.84
2018-06-27T02:25:55.954Z,102489.30
2018-06-27T02:28:25.324Z,102486.33
2018-06-27T02:30:54.104Z,102491.21
2018-06-27T02:33:29.752Z,102488.23
2018-06-27T02:35:59.495Z,102484.43
2018-06-27T02:38:29.023Z,102485.51
2018-06-27T02:40:58.102Z,102485.27
2018-06-27T02:43:27.267Z,102493.14
2018-06-27T02:45:56.254Z,102490.70
2018-06-27T02:48:26.018Z,102488.27
2018-06-27T02:50:54.824Z,102496.95
2018-06-27T02:53:24.618Z,102490.70
2018-06-27T02:55:53.832Z,102494.52
2018-06-27T02:58:22.907Z,102495.87
2018-06-27T03:00:52.017Z,102493.70
2018-06-27T03:03:20.983Z,102491.80
2018-06-27T03:05:49.839Z,102495.59
2018-06-27T03:08:18.643Z,102496.67
2018-06-27T03:10:48.142Z,102493.16
2018-06-27T03:13:17.591Z,102496.95
2018-06-27T03:15:46.362Z,102507.02
2018-06-27T03:18:15.159Z,102499.15
2018-06-27T03:20:43.959Z,102496.43
2018-06-27T03:23:12.800Z,102503.47
2018-06-27T03:25:42.259Z,102510.02
2018-06-27T03:28:11.691Z,102507.81
2018-06-27T03:30:40.496Z,102510.54
2018-06-27T03:33:09.490Z,102501.02
2018-06-27T03:35:38.545Z,102511.09
2018-06-27T03:38:07.602Z,102510.53
2018-06-27T03:40:36.405Z,102512.16
2018-06-27T03:43:05.365Z,102509.96
2018-06-27T03:45:34.529Z,102514.31
2018-06-27T03:48:04.163Z,102507.78
2018-06-27T03:50:33.028Z,102518.37
2018-06-27T03:53:02.949Z,102516.73
2018-06-27T03:55:32.325Z,102514.02
2018-06-27T03:58:01.468Z,102507.22
2018-06-27T04:00:30.852Z,102508.28
2018-06-27T04:03:00.179Z,102508.55
2018-06-27T04:05:29.399Z,102509.33
2018-06-27T04:07:58.245Z,102517.48
2018-06-27T04:10:27.774Z,102519.92
2018-06-27T04:12:57.248Z,102520.73
2018-06-27T04:15:26.865Z,102516.62
2018-06-27T04:17:55.761Z,102513.91
2018-06-27T04:20:24.971Z,102516.89
2018-06-27T04:22:58.850Z,102519.59
2018-06-27T04:25:27.670Z,102527.98
2018-06-27T04:27:57.263Z,102524.75
2018-06-27T04:30:26.600Z,102529.36
2018-06-27T04:32:55.729Z,102532.08
2018-06-27T04:35:24.701Z,102531.54
2018-06-27T04:37:54.135Z,102529.33
2018-06-27T04:40:23.311Z,102527.17
2018-06-27T04:42:52.491Z,102528.75
2018-06-27T04:45:21.668Z,102522.47
2018-06-27T04:47:50.819Z,102519.44
2018-06-27T04:50:19.660Z,102520.78
2018-06-27T04:52:49.410Z,102531.37
2018-06-27T04:55:18.224Z,102531.61
2018-06-27T04:57:47.173Z,102535.95
2018-06-27T05:00:16.446Z,102537.59
2018-06-27T05:02:45.792Z,102543.58
2018-06-27T05:05:14.927Z,102548.47
2018-06-27T05:07:43.771Z,102546.53
2018-06-27T05:10:12.587Z,102543.78
2018-06-27T05:12:41.553Z,102554.67
2018-06-27T05:15:10.529Z,102553.03
2018-06-27T05:17:39.660Z,102544.84
2018-06-27T05:20:09.080Z,102551.62
2018-06-27T05:22:38.508Z,102551.00
2018-06-27T05:25:07.432Z,102547.17
2018-06-27T05:27:37.135Z,102549.56
2018-06-27T05:30:05.933Z,102549.80
2018-06-27T05:32:35.429Z,102551.09
2018-06-27T05:35:04.972Z,102551.35
2018-06-27T05:37:34.404Z,102547.25
2018-06-27T05:40:03.286Z,102552.97
2018-06-27T05:42:32.446Z,102550.22
2018-06-27T05:45:01.316Z,102554.83
2018-06-27T05:47:30.840Z,102554.78
2018-06-27T05:50:00.571Z,102553.38
2018-06-27T05:52:30.968Z,102562.88
2018-06-27T05:55:05.291Z,102553.60
2018-06-27T05:57:34.126Z,102557.12
2018-06-27T06:00:03.684Z,102559.86
2018-06-27T06:02:32.510Z,102562.52
2018-06-27T06:05:01.602Z,102565.18
2018-06-27T06:07:30.623Z,102564.91
2018-06-27T06:10:00.056Z,102561.64
2018-06-27T06:12:29.098Z,102563.30
2018-06-27T06:14:58.600Z,102571.44
2018-06-27T06:17:28.111Z,102569.48
2018-06-27T06:19:57.113Z,102569.00
2018-06-27T06:22:26.866Z,102575.23
2018-06-27T06:24:55.679Z,102571.09
2018-06-27T06:27:24.454Z,102573.22
2018-06-27T06:29:53.633Z,102573.70
2018-06-27T06:32:22.413Z,102578.58
2018-06-27T06:34:51.255Z,102581.78
2018-06-27T06:37:20.466Z,102585.30
2018-06-27T06:39:49.484Z,102583.38
2018-06-27T06:42:18.342Z,102586.09
2018-06-27T06:44:47.509Z,102592.09
2018-06-27T06:47:16.633Z,102596.08
2018-06-27T06:49:46.100Z,102597.23
2018-06-27T06:52:15.305Z,102603.47
2018-06-27T06:54:44.106Z,102600.69
2018-06-27T06:57:13.004Z,102600.42
2018-06-27T06:59:41.851Z,102606.92
2018-06-27T07:02:11.030Z,102602.53
2018-06-27T07:04:40.141Z,102602.48
2018-06-27T07:07:08.925Z,102603.28
2018-06-27T07:09:38.575Z,102601.59
2018-06-27T07:12:08.079Z,102607.30
2018-06-27T07:14:36.880Z,102610.27
2018-06-27T07:17:05.703Z,102608.89
2018-06-27T07:19:35.075Z,102611.84
2018-06-27T07:22:03.936Z,102611.48
2018-06-27T07:24:33.183Z,102609.85
2018-06-27T07:27:02.342Z,102608.19
2018-06-27T07:29:31.240Z,102606.20
2018-06-27T07:32:00.031Z,102603.44
2018-06-27T07:34:28.913Z,102603.65
2018-06-27T07:36:58.467Z,102599.45
2018-06-27T07:39:27.293Z,102595.80
2018-06-27T07:41:56.451Z,102601.62
2018-06-27T07:44:25.619Z,102599.05
2018-06-27T07:46:55.603Z,102598.49
2018-06-27T07:49:25.045Z,102597.95
2018-06-27T07:51:54.065Z,102600.31
2018-06-27T07:54:23.157Z,102601.91
2018-06-27T07:56:51.979Z,102603.78
2018-06-27T07:59:21.196Z,102596.91
2018-06-27T08:01:50.091Z,102602.08
2018-06-27T08:04:18.930Z,102597.90
2018-06-27T08:06:48.249Z,102601.84
2018-06-27T08:09:17.419Z,102604.47
2018-06-27T08:11:46.405Z,102602.95
2018-06-27T08:14:15.821Z,102598.27
2018-06-27T08:16:45.250Z,102604.92
2018-06-27T08:19:14.118Z,102608.06
2018-06-27T08:21:42.977Z,102608.05
2018-06-27T08:24:12.255Z,102604.74
2018-06-27T08:26:41.117Z,102606.88
2018-06-27T08:29:10.730Z,102607.36
2018-06-27T08:31:40.275Z,102611.24
2018-06-27T08:34:09.816Z,102608.64
2018-06-27T08:36:39.337Z,102606.58
2018-06-27T08:39:09.440Z,102599.90
2018-06-27T08:41:39.245Z,102600.77
2018-06-27T08:44:08.245Z,102600.58
2018-06-27T08:46:37.079Z,102599.26
2018-06-27T08:49:06.252Z,102597.48
2018-06-27T08:51:35.366Z,102592.08
2018-06-27T08:54:05.199Z,102589.70
2018-06-27T08:56:34.042Z,102586.19
2018-06-27T08:59:03.266Z,102589.03
2018-06-27T09:01:32.665Z,102595.72
2018-06-27T09:04:02.143Z,102589.81
2018-06-27T09:06:30.967Z,102590.86
2018-06-27T09:09:00.195Z,102588.76
2018-06-27T09:11:29.174Z,102597.08
2018-06-27T09:13:58.769Z,102592.83
2018-06-27T09:16:28.302Z,102591.22
2018-06-27T09:18:57.749Z,102588.37
2018-06-27T09:21:26.838Z,102594.80
2018-06-27T09:23:56.390Z,102583.91
2018-06-27T09:26:26.121Z,102590.75
2018-06-27T09:28:55.290Z,102585.49
2018-06-27T09:31:24.128Z,102584.67
2018-06-27T09:33:52.928Z,102595.91
2018-06-27T09:36:22.151Z,102591.39
2018-06-27T09:38:50.979Z,102592.43
2018-06-27T09:41:20.058Z,102593.80
2018-06-27T09:43:49.594Z,102591.97
2018-06-27T09:46:18.844Z,102586.97
2018-06-27T09:48:47.672Z,102593.66
2018-06-27T09:51:16.848Z,102584.89
2018-06-27T09:53:45.706Z,102591.06
2018-06-27T09:56:15.104Z,102586.86
2018-06-27T09:58:44.163Z,102577.45
2018-06-27T10:01:13.620Z,102584.33
2018-06-27T10:03:43.060Z,102579.31
2018-06-27T10:06:12.778Z,102571.63
2018-06-27T10:08:42.123Z,102566.42
2018-06-27T10:11:11.083Z,102558.13
2018-06-27T10:13:40.143Z,102565.03
2018-06-27T10:16:08.969Z,102565.55
2018-06-27T10:18:38.292Z,102556.66
2018-06-27T10:21:07.233Z,102545.92
2018-06-27T10:23:36.280Z,102547.20
2018-06-27T10:26:06.019Z,102544.30
2018-06-27T10:28:37.008Z,102546.59
2018-06-27T10:31:06.071Z,102541.64
2018-06-27T10:33:35.557Z,102552.95
2018-06-27T10:36:04.816Z,102535.13
2018-06-27T10:38:34.234Z,102537.67
2018-06-27T10:41:03.409Z,102541.47
2018-06-27T10:43:32.293Z,102535.67
2018-06-27T10:46:01.079Z,102533.64
2018-06-27T10:48:30.292Z,102521.80
2018-06-27T10:50:59.419Z,102511.28
2018-06-27T10:53:28.644Z,102516.12
2018-06-27T10:55:57.497Z,102517.77
2018-06-27T10:58:26.887Z,102503.66
2018-06-27T11:00:55.744Z,102510.45
2018-06-27T11:03:24.569Z,102500.63
2018-06-27T11:05:53.503Z,102506.30
2018-06-27T11:08:22.575Z,102506.50
2018-06-27T11:10:51.746Z,102502.92
2018-06-27T11:13:21.302Z,102500.52
2018-06-27T11:15:50.715Z,102509.02
2018-06-27T11:18:19.781Z,102504.72
2018-06-27T11:20:49.149Z,102505.16
2018-06-27T11:23:18.285Z,102501.88
2018-06-27T11:25:47.114Z,102506.84
2018-06-27T11:28:17.246Z,102505.91
2018-06-27T11:30:46.900Z,102500.42
2018-06-27T11:33:15.809Z,102499.77
2018-06-27T11:35:44.793Z,102502.75
2018-06-27T11:38:14.028Z,102494.15
2018-06-27T11:40:42.891Z,102492.77
2018-06-27T11:43:11.825Z,102489.98
2018-06-27T11:45:40.985Z,102486.08
2018-06-27T11:48:09.910Z,102484.42
2018-06-27T11:50:39.059Z,102479.58
2018-06-27T11:53:08.614Z,102475.56
2018-06-27T11:55:37.717Z,102476.34
2018-06-27T11:58:06.535Z,102476.79
2018-06-27T12:00:35.384Z,102468.38
2018-06-27T12:03:04.626Z,102474.48
2018-06-27T12:05:33.439Z,102472.52
2018-06-27T12:08:03.072Z,102461.78
2018-06-27T12:10:32.138Z,102456.91
2018-06-27T12:13:02.263Z,102460.27
2018-06-27T12:15:31.258Z,102454.89
2018-06-27T12:18:00.458Z,102456.20
2018-06-27T12:20:29.647Z,102456.33
2018-06-27T12:22:58.663Z,102456.03
2018-06-27T12:25:27.807Z,102458.98
2018-06-27T12:27:56.545Z,102463.03
2018-06-27T12:30:25.831Z,102447.45
2018-06-27T12:32:54.744Z,102440.50
2018-06-27T12:35:24.215Z,102440.86
2018-06-27T12:37:53.410Z,102434.21
2018-06-27T12:40:22.746Z,102435.14
2018-06-27T12:42:51.517Z,102435.48
2018-06-27T12:45:20.565Z,102435.08
2018-06-27T12:47:49.503Z,102429.21
2018-06-27T12:50:18.986Z,102437.30
2018-06-27T12:52:47.972Z,102439.22
2018-06-27T12:55:17.367Z,102444.77
2018-06-27T12:57:46.142Z,102436.51
2018-06-27T13:00:15.222Z,102442.56
2018-06-27T13:02:44.079Z,102437.06
2018-06-27T13:05:13.359Z,102439.09
2018-06-27T13:07:42.496Z,102427.56
2018-06-27T13:10:11.594Z,102423.58
2018-06-27T13:12:40.994Z,102428.96
2018-06-27T13:15:10.031Z,102426.27
2018-06-27T13:17:39.173Z,102423.13
2018-06-27T13:20:08.119Z,102414.98
2018-06-27T13:22:36.908Z,102417.66
2018-06-27T13:25:05.778Z,102410.88
2018-06-27T13:27:34.644Z,102414.50
2018-06-27T13:30:03.491Z,102408.71
2018-06-27T13:32:32.587Z,102402.73
2018-06-27T13:35:02.014Z,102396.14
2018-06-27T13:37:31.174Z,102398.39
2018-06-27T13:39:59.982Z,102393.98
2018-06-27T13:42:28.843Z,102388.02
2018-06-27T13:44:58.442Z,102387.82
2018-06-27T13:47:27.507Z,102390.81
2018-06-27T13:49:56.628Z,102388.00
2018-06-27T13:52:26.032Z,102385.41
2018-06-27T13:54:56.500Z,102387.55
2018-06-27T13:57:26.445Z,102378.79
2018-06-27T13:59:55.520Z,102378.02
2018-06-27T14:02:24.503Z,102377.20
2018-06-27T14:04:53.621Z,102374.34
2018-06-27T14:07:22.422Z,102366.21
2018-06-27T14:09:51.366Z,102371.41
2018-06-27T14:12:20.143Z,102360.00
2018-06-27T14:14:49.188Z,102358.42
2018-06-27T14:17:18.032Z,102357.42
2018-06-27T14:19:47.390Z,102357.59
2018-06-27T14:22:16.235Z,102353.98
2018-06-27T14:24:45.586Z,102359.84
2018-06-27T14:27:14.417Z,102350.66
2018-06-27T14:29:43.174Z,102351.44
2018-06-27T14:32:12.021Z,102353.84
2018-06-27T14:34:41.352Z,102346.66
2018-06-27T14:37:10.145Z,102337.86
2018-06-27T14:39:39.276Z,102337.66
2018-06-27T14:42:08.047Z,102333.45
2018-06-27T14:44:37.108Z,102331.45
2018-06-27T14:47:05.927Z,102326.06
2018-06-27T14:49:34.694Z,102329.22
2018-06-27T14:52:03.577Z,102316.88
2018-06-27T14:54:32.965Z,102310.69
2018-06-27T14:57:02.424Z,102307.28
2018-06-27T14:59:31.566Z,102315.66
2018-06-27T15:02:00.316Z,102311.77
2018-06-27T15:04:29.340Z,102310.48
2018-06-27T15:06:58.435Z,102303.91
2018-06-27T15:09:27.941Z,102301.91
2018-06-27T15:11:56.709Z,102299.72
2018-06-27T15:14:25.574Z,102298.29
2018-06-27T15:16:54.772Z,102292.95
2018-06-27T15:19:23.712Z,102303.38
2018-06-27T15:21:53.500Z,102296.36
2018-06-27T15:24:22.608Z,102292.23
2018-06-27T15:26:51.619Z,102290.25
2018-06-27T15:29:20.641Z,102290.63
2018-06-27T15:31:50.328Z,102287.42
2018-06-27T15:34:19.300Z,102287.23
2018-06-27T15:36:48.349Z,102289.16
2018-06-27T15:39:17.687Z,102293.96
2018-06-27T15:41:46.956Z,102291.70
2018-06-27T15:44:16.221Z,102289.44
2018-06-27T15:46:45.363Z,102284.20
2018-06-27T15:49:15.009Z,102278.83
2018-06-27T15:51:44.058Z,102283.89
2018-06-27T15:54:12.840Z,102280.91
2018-06-27T15:56:41.631Z,102278.28
2018-06-27T15:59:10.592Z,102277.89
2018-06-27T16:01:39.593Z,102274.99
2018-06-27T16:04:08.888Z,102277.78
2018-06-27T16:06:37.790Z,102274.20
2018-06-27T16:09:08.492Z,102269.02
2018-06-27T16:11:37.367Z,102275.06
2018-06-27T16:14:06.711Z,102271.70
2018-06-27T16:16:35.769Z,102266.19
2018-06-27T16:19:04.600Z,102277.22
2018-06-27T16:21:33.958Z,102270.25
2018-06-27T16:24:03.273Z,102262.37
2018-06-27T16:26:32.263Z,102262.73
2018-06-27T16:29:01.248Z,102263.44
2018-06-27T16:31:30.096Z,102267.64
2018-06-27T16:33:58.969Z,102267.09
2018-06-27T16:36:28.252Z,102266.12
2018-06-27T16:38:57.450Z,102267.77
2018-06-27T16:41:26.807Z,102266.73
2018-06-27T16:43:55.606Z,102262.05
2018-06-27T16:46:25.075Z,102258.04
2018-06-27T16:48:54.233Z,102263.83
2018-06-27T16:51:23.414Z,102271.11
2018-06-27T16:53:52.686Z,102269.77
2018-06-27T16:56:21.958Z,102275.06
2018-06-27T16:58:50.835Z,102267.09
2018-06-27T17:01:20.365Z,102267.95
2018-06-27T17:03:49.595Z,102270.63
2018-06-27T17:06:18.806Z,102268.54
2018-06-27T17:08:48.073Z,102267.41
2018-06-27T17:11:17.462Z,102263.06
2018-06-27T17:13:46.825Z,102263.36
2018-06-27T17:16:15.807Z,102266.22
2018-06-27T17:18:45.223Z,102260.86
2018-06-27T17:21:15.190Z,102267.22
2018-06-27T17:23:44.147Z,102257.10
2018-06-27T17:26:13.333Z,102267.94
2018-06-27T17:28:42.811Z,102265.38
2018-06-27T17:31:12.310Z,102259.06
2018-06-27T17:33:41.213Z,102258.34
2018-06-27T17:36:10.015Z,102261.35
2018-06-27T17:38:38.768Z,102262.81
2018-06-27T17:41:08.212Z,102261.44
2018-06-27T17:43:37.420Z,102261.05
2018-06-27T17:46:06.529Z,102262.50
2018-06-27T17:48:35.285Z,102262.20
2018-06-27T17:51:04.574Z,102267.75
2018-06-27T17:53:34.991Z,102271.83
2018-06-27T17:56:03.817Z,102272.56
2018-06-27T17:58:32.996Z,102275.34
2018-06-27T18:01:02.158Z,102277.71
2018-06-27T18:03:32.471Z,102280.72
2018-06-27T18:06:01.295Z,102279.73
2018-06-27T18:08:30.025Z,102284.15
2018-06-27T18:10:59.177Z,102291.77
2018-06-27T18:13:28.016Z,102292.14
2018-06-27T18:15:56.982Z,102295.61
2018-06-27T18:18:25.955Z,102287.55
2018-06-27T18:20:55.642Z,102288.27
2018-06-27T18:23:24.832Z,102292.78
2018-06-27T18:25:53.905Z,102296.70
2018-06-27T18:28:23.336Z,102297.38
2018-06-27T18:30:52.172Z,102306.63
2018-06-27T18:33:21.105Z,102311.61
2018-06-27T18:35:49.854Z,102304.11
2018-06-27T18:38:19.634Z,102307.48
2018-06-27T18:40:49.345Z,102308.44
2018-06-27T18:43:18.142Z,102311.37
2018-06-27T18:45:46.829Z,102307.22
2018-06-27T18:48:15.840Z,102307.70
2018-06-27T18:50:44.575Z,102310.28
2018-06-27T18:53:13.614Z,102311.13
2018-06-27T18:55:42.978Z,102319.50
2018-06-27T18:58:12.031Z,102318.30
2018-06-27T19:00:41.406Z,102321.66
2018-06-27T19:03:10.460Z,102319.60
2018-06-27T19:05:39.372Z,102317.00
2018-06-27T19:08:08.431Z,102323.17
2018-06-27T19:10:37.139Z,102318.04
2018-06-27T19:13:06.256Z,102315.20
2018-06-27T19:15:35.286Z,102320.11
2018-06-27T19:18:04.426Z,102321.39
2018-06-27T19:20:33.417Z,102328.41
2018-06-27T19:23:02.175Z,102330.30
2018-06-27T19:25:31.824Z,102324.97
2018-06-27T19:28:00.876Z,102323.29
2018-06-27T19:30:29.869Z,102328.84
2018-06-27T19:32:58.883Z,102336.33
2018-06-27T19:35:28.135Z,102336.49
2018-06-27T19:37:57.408Z,102342.59
2018-06-27T19:40:26.660Z,102340.89
2018-06-27T19:45:49.094Z,102346.94
2018-06-27T19:48:18.128Z,102342.44
2018-06-27T19:50:47.075Z,102338.89
2018-06-27T19:53:16.141Z,102346.38
2018-06-27T19:55:45.191Z,102348.46
2018-06-27T19:58:13.908Z,102352.13
2018-06-27T20:00:42.647Z,102348.47
2018-06-27T20:03:11.764Z,102352.84
2018-06-27T20:05:41.009Z,102348.80
2018-06-27T20:08:09.814Z,102353.98
2018-06-27T20:10:39.110Z,102352.93
2018-06-27T20:13:07.834Z,102362.83
2018-06-27T20:15:37.181Z,102365.91
2018-06-27T20:18:06.368Z,102364.20
2018-06-27T20:20:35.408Z,102364.63
2018-06-27T20:23:04.167Z,102362.40
2018-06-27T20:25:32.917Z,102368.00
2018-06-27T20:28:01.617Z,102371.66
2018-06-27T20:30:30.909Z,102369.20
2018-06-27T20:32:59.961Z,102375.37
2018-06-27T20:35:29.019Z,102374.16
2018-06-27T20:37:57.714Z,102373.43
2018-06-27T20:40:26.506Z,102374.07
2018-06-27T20:42:55.342Z,102374.27
2018-06-27T20:45:24.351Z,102368.71
2018-06-27T20:47:53.437Z,102373.05
2018-06-27T20:50:22.178Z,102374.27
2018-06-27T20:53:05.280Z,102373.92
2018-06-27T20:55:34.306Z,102371.45
2018-06-27T20:58:03.265Z,102371.30
2018-06-27T21:00:32.391Z,102372.41
2018-06-27T21:03:07.018Z,102380.59
2018-06-27T21:05:35.996Z,102370.05
2018-06-27T21:08:05.335Z,102368.52
2018-06-27T21:10:34.223Z,102371.23
2018-06-27T21:13:03.297Z,102367.51
2018-06-27T21:15:32.592Z,102367.81
2018-06-27T21:18:01.391Z,102364.96
2018-06-27T21:20:30.147Z,102367.65
2018-06-27T21:22:58.880Z,102365.90
2018-06-27T21:25:28.226Z,102365.41
2018-06-27T21:27:57.515Z,102364.72
2018-06-27T21:30:26.355Z,102365.23
2018-06-27T21:32:55.720Z,102372.44
2018-06-27T21:35:24.440Z,102369.77
2018-06-27T21:37:53.686Z,102373.36
2018-06-27T21:40:22.447Z,102377.61
2018-06-27T21:42:52.807Z,102374.44
2018-06-27T21:45:21.848Z,102372.69
2018-06-27T21:47:50.585Z,102378.19
2018-06-27T21:50:19.389Z,102384.97
2018-06-27T21:52:48.095Z,102380.22
2018-06-27T21:55:17.171Z,102382.80
2018-06-27T21:57:46.245Z,102392.17
2018-06-27T22:00:15.907Z,102390.33
2018-06-27T22:02:45.145Z,102382.55
2018-06-27T22:05:14.424Z,102400.23
2018-06-27T22:07:43.939Z,102396.02
2018-06-27T22:10:12.926Z,102396.92
2018-06-27T22:12:42.273Z,102387.72
2018-06-27T22:15:11.375Z,102399.83
2018-06-27T22:17:40.957Z,102396.36
2018-06-27T22:20:09.683Z,102391.35
2018-06-27T22:22:39.004Z,102393.84
2018-06-27T22:25:07.737Z,102394.09
2018-06-27T22:27:36.503Z,102398.94
2018-06-27T22:30:05.364Z,102397.31
2018-06-27T22:32:34.909Z,102396.09
2018-06-27T22:35:04.052Z,102399.25
2018-06-27T22:37:32.940Z,102396.11
2018-06-27T22:40:01.983Z,102401.17
2018-06-27T22:42:30.810Z,102399.15
2018-06-27T22:44:59.885Z,102396.73
2018-06-27T22:47:29.257Z,102398.83
2018-06-27T22:49:58.307Z,102392.98
2018-06-27T22:52:27.622Z,102391.53
2018-06-27T22:54:56.591Z,102394.34
2018-06-27T22:57:25.603Z,102399.41
2018-06-27T22:59:54.533Z,102403.34
2018-06-27T23:02:23.268Z,102408.36
2018-06-27T23:04:52.066Z,102405.76
2018-06-27T23:07:21.123Z,102409.91
2018-06-27T23:09:50.450Z,102405.39
2018-06-27T23:12:19.510Z,102401.63
2018-06-27T23:14:48.235Z,102396.47
2018-06-27T23:17:17.017Z,102397.62
2018-06-27T23:19:46.049Z,102400.25
2018-06-27T23:22:26.180Z,102400.64
2018-06-27T23:24:55.270Z,102393.27
2018-06-27T23:27:24.410Z,102390.92
2018-06-27T23:29:53.223Z,102397.59
2018-06-27T23:32:22.234Z,102388.95
2018-06-27T23:34:51.164Z,102391.83
2018-06-27T23:37:19.948Z,102391.41
2018-06-27T23:39:48.658Z,102383.86
2018-06-27T23:42:17.379Z,102392.47
2018-06-27T23:44:46.434Z,102393.11
2018-06-27T23:47:15.388Z,102392.92
2018-06-27T23:49:44.736Z,102393.30
2018-06-27T23:52:13.775Z,102396.05
2018-06-27T23:54:42.823Z,102396.36
2018-06-27T23:57:11.915Z,102396.42
2018-06-27T23:59:41.020Z,102395.38
